Time;durP1;ratioP1;P1;durP2;ratioP2;P2;SDS_P1;SDS_P2;PMS_P1;PMS_P2;Temp;Humidity;BMP_temperature;BMP_pressure;BME280_temperature;BME280_humidity;BME280_pressure;Samples;Min_cycle;Max_cycle;Signal;HPM_P1;HPM_P2
2022/07/15 00:01:34;;;;;;;27.27;25.37;;;21.30;54.00;;;;;;4971305;28;21034;-68
2022/07/15 00:04:01;;;;;;;26.23;24.63;;;21.30;54.10;;;;;;4967921;28;20459;-68
2022/07/15 00:06:28;;;;;;;26.73;24.97;;;21.20;54.90;;;;;;4970394;28;20470;-69
2022/07/15 00:08:57;;;;;;;26.93;25.03;;;21.30;54.70;;;;;;4969819;28;20485;-68
2022/07/15 00:11:24;;;;;;;27.40;25.73;;;21.30;55.60;;;;;;4970228;28;20979;-68
2022/07/15 00:13:51;;;;;;;27.33;25.73;;;21.20;55.90;;;;;;4968203;28;20543;-68
2022/07/15 00:16:18;;;;;;;26.50;25.10;;;21.20;55.90;;;;;;4964517;28;20553;-68
2022/07/15 00:18:44;;;;;;;27.30;25.50;;;21.10;56.20;;;;;;4969281;28;20582;-70
2022/07/15 00:21:11;;;;;;;27.10;25.70;;;21.10;56.50;;;;;;4958945;28;21070;-70
2022/07/15 00:23:38;;;;;;;27.20;25.60;;;21.00;56.70;;;;;;4967755;28;21472;-71
2022/07/15 00:26:07;;;;;;;26.70;25.10;;;21.00;57.20;;;;;;4971062;28;20555;-70
2022/07/15 00:28:33;;;;;;;27.50;25.80;;;20.90;57.90;;;;;;4968551;28;20904;-70
2022/07/15 00:31:00;;;;;;;26.73;25.23;;;20.80;58.80;;;;;;4970909;28;20462;-68
2022/07/15 00:33:27;;;;;;;27.50;25.80;;;20.70;59.30;;;;;;4967604;28;20457;-68
2022/07/15 00:35:54;;;;;;;27.97;26.17;;;20.60;59.70;;;;;;4969779;28;20469;-68
2022/07/15 00:38:21;;;;;;;27.13;25.53;;;20.50;60.30;;;;;;4971680;28;20576;-68
2022/07/15 00:40:50;;;;;;;26.57;25.07;;;20.40;60.50;;;;;;4969661;28;20478;-68
2022/07/15 00:43:19;;;;;;;26.73;25.13;;;20.30;60.50;;;;;;4970011;28;20817;-68
2022/07/15 00:45:47;;;;;;;26.67;25.27;;;20.30;60.10;;;;;;4967397;28;20480;-70
2022/07/15 00:48:14;;;;;;;27.33;25.83;;;20.30;60.10;;;;;;4968667;28;21081;-68
2022/07/15 00:50:41;;;;;;;27.40;25.90;;;20.10;60.30;;;;;;4968404;28;20545;-68
2022/07/15 00:53:13;;;;;;;26.93;25.33;;;20.10;60.70;;;;;;4970934;28;20457;-68
2022/07/15 00:55:43;;;;;;;26.70;25.10;;;20.10;60.60;;;;;;4968113;28;21019;-68
2022/07/15 00:58:15;;;;;;;25.70;24.30;;;20.00;60.70;;;;;;4969679;28;20567;-69
2022/07/15 01:00:45;;;;;;;26.40;24.50;;;20.00;60.70;;;;;;4969831;28;20562;-68
2022/07/15 01:03:12;;;;;;;25.73;24.17;;;20.00;60.90;;;;;;4968625;28;20457;-68
2022/07/15 01:05:40;;;;;;;26.10;24.60;;;20.00;60.80;;;;;;4968462;28;21032;-68
2022/07/15 01:08:07;;;;;;;26.60;25.10;;;19.90;60.80;;;;;;4969604;28;20485;-68
2022/07/15 01:10:36;;;;;;;25.20;23.70;;;19.90;60.60;;;;;;4969026;28;20551;-68
2022/07/15 01:13:04;;;;;;;26.43;24.97;;;19.90;60.60;;;;;;4967828;28;20460;-69
2022/07/15 01:15:32;;;;;;;26.90;25.13;;;19.90;60.50;;;;;;4960907;28;20470;-69
2022/07/15 01:18:02;;;;;;;26.40;24.80;;;19.90;60.80;;;;;;4957030;28;20484;-68
2022/07/15 01:20:30;;;;;;;27.07;25.57;;;19.80;60.90;;;;;;4968039;28;20479;-69
2022/07/15 01:22:58;;;;;;;26.80;25.20;;;19.80;61.00;;;;;;4968005;28;20460;-68
2022/07/15 01:25:26;;;;;;;27.10;25.30;;;19.70;61.20;;;;;;4968316;28;20465;-68
2022/07/15 01:27:52;;;;;;;26.20;24.60;;;19.70;61.40;;;;;;4963053;28;20488;-68
2022/07/15 01:30:19;;;;;;;26.40;24.83;;;19.70;61.50;;;;;;4967947;28;20464;-70
2022/07/15 01:32:46;;;;;;;26.43;24.87;;;19.70;61.70;;;;;;4968135;28;21057;-70
2022/07/15 01:35:13;;;;;;;25.60;24.00;;;19.60;61.60;;;;;;4967422;28;20591;-70
2022/07/15 01:37:40;;;;;;;26.60;25.03;;;19.60;61.50;;;;;;4968905;28;20563;-70
2022/07/15 01:40:09;;;;;;;26.43;24.63;;;19.50;61.50;;;;;;4967684;28;21043;-70
2022/07/15 01:42:36;;;;;;;28.03;26.43;;;19.50;61.60;;;;;;4971841;28;20476;-70
2022/07/15 01:45:04;;;;;;;27.90;26.00;;;19.50;61.60;;;;;;4972659;28;20539;-70
2022/07/15 01:47:32;;;;;;;27.20;25.60;;;19.50;61.60;;;;;;4970025;28;21157;-71
2022/07/15 01:49:59;;;;;;;27.80;25.90;;;19.40;61.80;;;;;;4971959;28;20808;-70
2022/07/15 01:52:26;;;;;;;27.30;25.70;;;19.40;61.70;;;;;;4971406;28;20867;-70
2022/07/15 01:54:53;;;;;;;26.77;25.10;;;19.40;62.10;;;;;;4970731;28;20716;-70
2022/07/15 01:57:21;;;;;;;28.47;26.67;;;19.30;62.30;;;;;;4972493;28;20463;-70
2022/07/15 01:59:49;;;;;;;26.43;24.93;;;19.30;62.30;;;;;;4968932;28;20476;-70
2022/07/15 02:02:16;;;;;;;26.60;25.00;;;19.30;62.50;;;;;;4966256;28;20480;-70
2022/07/15 02:04:43;;;;;;;27.03;25.33;;;19.20;62.50;;;;;;4970933;28;20551;-70
2022/07/15 02:07:10;;;;;;;26.50;24.97;;;19.10;62.70;;;;;;4970177;28;20552;-70
2022/07/15 02:09:37;;;;;;;26.60;24.90;;;19.10;63.00;;;;;;4963859;28;20491;-70
2022/07/15 02:12:05;;;;;;;26.67;24.90;;;19.00;63.20;;;;;;4965053;28;20850;-70
2022/07/15 02:14:33;;;;;;;27.70;26.00;;;19.00;63.30;;;;;;4971509;28;20521;-70
2022/07/15 02:17:00;;;;;;;26.73;25.17;;;18.90;64.00;;;;;;4967260;28;20464;-70
2022/07/15 02:19:27;;;;;;;26.97;25.27;;;18.80;64.10;;;;;;4972289;28;20559;-70
2022/07/15 02:21:54;;;;;;;26.70;25.10;;;18.70;64.50;;;;;;4971893;28;20854;-70
2022/07/15 02:24:21;;;;;;;29.03;27.13;;;18.60;64.70;;;;;;4970621;28;20501;-70
2022/07/15 02:26:49;;;;;;;26.10;24.60;;;18.60;64.80;;;;;;4970417;28;21685;-70
2022/07/15 02:29:16;;;;;;;27.20;25.60;;;18.50;64.90;;;;;;4970889;28;20486;-70
2022/07/15 02:31:45;;;;;;;27.00;25.30;;;18.50;65.10;;;;;;4970837;28;20550;-70
2022/07/15 02:34:12;;;;;;;26.87;25.17;;;18.50;65.10;;;;;;4971850;28;20973;-70
2022/07/15 02:36:39;;;;;;;26.40;24.70;;;18.50;65.10;;;;;;4969702;28;20997;-70
2022/07/15 02:39:06;;;;;;;26.27;24.70;;;18.50;64.90;;;;;;4971008;28;20562;-68
2022/07/15 02:41:33;;;;;;;26.60;25.00;;;18.50;65.00;;;;;;4970049;28;20490;-68
2022/07/15 02:44:02;;;;;;;26.10;24.67;;;18.40;65.10;;;;;;4970756;28;20518;-68
2022/07/15 02:46:29;;;;;;;26.20;24.60;;;18.30;65.10;;;;;;4970627;28;20506;-68
2022/07/15 02:48:57;;;;;;;27.97;26.37;;;18.30;65.20;;;;;;4964799;28;20493;-68
2022/07/15 02:51:24;;;;;;;26.50;25.00;;;18.20;65.10;;;;;;4966454;28;20451;-68
2022/07/15 02:53:51;;;;;;;28.10;26.27;;;18.20;65.40;;;;;;4970554;28;20466;-70
2022/07/15 02:56:18;;;;;;;26.17;24.67;;;18.10;65.50;;;;;;4971308;28;20521;-70
2022/07/15 02:58:45;;;;;;;26.10;24.50;;;18.00;66.00;;;;;;4971160;28;20566;-70
2022/07/15 03:01:12;;;;;;;27.73;25.93;;;17.90;66.20;;;;;;4971777;28;20569;-70
2022/07/15 03:03:39;;;;;;;26.83;25.23;;;17.90;66.50;;;;;;4969939;28;20825;-68
2022/07/15 03:06:08;;;;;;;26.67;25.07;;;17.80;66.50;;;;;;4970411;28;20539;-68
2022/07/15 03:08:35;;;;;;;26.10;24.50;;;17.80;66.60;;;;;;4970928;28;21018;-68
2022/07/15 03:11:02;;;;;;;28.80;27.00;;;17.80;66.60;;;;;;4971936;28;20988;-70
2022/07/15 03:13:29;;;;;;;26.67;25.07;;;17.80;66.90;;;;;;4969387;28;20550;-69
2022/07/15 03:15:56;;;;;;;27.67;25.70;;;17.70;67.30;;;;;;4968239;28;20460;-70
2022/07/15 03:18:23;;;;;;;28.53;26.63;;;17.70;67.30;;;;;;4970081;28;21516;-71
2022/07/15 03:20:50;;;;;;;27.40;25.90;;;17.70;67.30;;;;;;4972120;28;20546;-68
2022/07/15 03:23:19;;;;;;;31.00;29.00;;;17.60;67.30;;;;;;4969853;28;20518;-68
2022/07/15 03:25:46;;;;;;;28.20;26.50;;;17.60;67.50;;;;;;4971233;28;20540;-67
2022/07/15 03:28:12;;;;;;;28.50;26.63;;;17.50;67.60;;;;;;4970218;28;20478;-67
2022/07/15 03:30:39;;;;;;;28.97;26.93;;;17.50;67.70;;;;;;4971452;28;20894;-69
2022/07/15 03:33:06;;;;;;;32.03;29.90;;;17.40;67.90;;;;;;4966933;28;20547;-70
2022/07/15 03:35:33;;;;;;;29.73;27.83;;;17.30;68.30;;;;;;4971593;28;20467;-69
2022/07/15 03:38:00;;;;;;;31.03;29.00;;;17.30;68.80;;;;;;4964516;28;20487;-70
2022/07/15 03:40:28;;;;;;;28.50;26.80;;;17.30;68.50;;;;;;4970362;28;20534;-69
2022/07/15 03:42:55;;;;;;;30.43;28.27;;;17.20;68.70;;;;;;4957876;28;20843;-70
2022/07/15 03:45:22;;;;;;;28.00;26.20;;;17.20;68.90;;;;;;4970820;28;20490;-68
2022/07/15 03:47:50;;;;;;;28.40;26.67;;;17.20;69.10;;;;;;4968836;28;20933;-68
2022/07/15 03:50:17;;;;;;;27.93;26.20;;;17.10;69.20;;;;;;4971171;28;20455;-68
2022/07/15 03:52:44;;;;;;;28.37;26.63;;;17.20;69.20;;;;;;4968425;28;20474;-68
2022/07/15 03:55:11;;;;;;;29.37;27.47;;;17.20;69.00;;;;;;4970985;28;20462;-68
2022/07/15 03:57:40;;;;;;;29.93;28.13;;;17.20;69.40;;;;;;4968610;28;20828;-68
2022/07/15 04:00:08;;;;;;;32.30;30.00;;;17.30;69.20;;;;;;4968907;28;20463;-68
2022/07/15 04:02:35;;;;;;;28.07;26.37;;;17.40;68.90;;;;;;4967228;28;20475;-68
2022/07/15 04:05:02;;;;;;;29.20;27.23;;;17.50;68.30;;;;;;4969585;28;20463;-68
2022/07/15 04:07:29;;;;;;;28.10;26.30;;;17.50;68.10;;;;;;4968872;28;20973;-70
2022/07/15 04:09:56;;;;;;;28.73;26.83;;;17.60;68.30;;;;;;4970185;28;20828;-70
2022/07/15 04:12:23;;;;;;;31.30;29.20;;;17.60;68.10;;;;;;4967686;28;20542;-70
2022/07/15 04:14:51;;;;;;;36.97;34.37;;;17.70;67.80;;;;;;4971021;28;20522;-70
2022/07/15 04:17:18;;;;;;;34.80;32.20;;;17.80;68.30;;;;;;4967330;28;20880;-69
2022/07/15 04:19:45;;;;;;;28.00;26.40;;;17.90;68.10;;;;;;4970196;28;20953;-69
2022/07/15 04:22:12;;;;;;;29.13;27.07;;;18.10;67.10;;;;;;4963262;28;21068;-70
2022/07/15 04:24:39;;;;;;;30.90;28.70;;;18.10;66.40;;;;;;4963783;28;21006;-70
2022/07/15 04:27:06;;;;;;;29.10;27.20;;;18.00;67.00;;;;;;4961028;28;20499;-70
2022/07/15 04:29:35;;;;;;;29.10;27.17;;;18.00;67.00;;;;;;4969576;28;20558;-70
2022/07/15 04:32:04;;;;;;;29.10;27.27;;;17.90;67.30;;;;;;4967159;28;20483;-70
2022/07/15 04:34:31;;;;;;;28.63;26.97;;;17.90;67.20;;;;;;4970129;28;20547;-74
2022/07/15 04:36:58;;;;;;;28.70;26.80;;;17.80;67.60;;;;;;4968958;28;20465;-74
2022/07/15 04:39:25;;;;;;;27.77;26.07;;;17.90;67.60;;;;;;4967524;28;20486;-73
2022/07/15 04:41:52;;;;;;;29.37;27.53;;;17.80;68.10;;;;;;4968472;28;20808;-73
2022/07/15 04:44:19;;;;;;;28.60;26.70;;;17.80;68.10;;;;;;4967374;28;20467;-72
2022/07/15 04:46:46;;;;;;;29.03;26.90;;;17.80;68.00;;;;;;4966894;28;20831;-73
2022/07/15 04:51:59;;;;;;;29.30;27.37;;;17.80;68.10;;;;;;4960443;28;20797;-73
2022/07/15 04:54:26;;;;;;;31.37;29.57;;;17.90;67.80;;;;;;4964731;28;20467;-73
2022/07/15 04:56:52;;;;;;;30.07;28.10;;;17.90;68.40;;;;;;4968573;28;20462;-71
2022/07/15 04:59:19;;;;;;;31.40;29.40;;;18.10;68.00;;;;;;4970200;28;20489;-71
2022/07/15 05:01:46;;;;;;;30.63;28.73;;;18.40;67.40;;;;;;4967121;28;20852;-71
2022/07/15 05:04:15;;;;;;;31.07;29.07;;;18.50;66.50;;;;;;4969655;28;21039;-72
2022/07/15 05:06:42;;;;;;;29.37;27.47;;;18.60;66.10;;;;;;4967844;28;20978;-73
2022/07/15 05:09:08;;;;;;;32.27;30.17;;;18.80;66.30;;;;;;4969885;28;20487;-72
2022/07/15 05:11:35;;;;;;;30.87;28.97;;;18.80;65.80;;;;;;4961964;28;20558;-72
2022/07/15 05:14:02;;;;;;;30.30;28.50;;;18.90;65.30;;;;;;4966659;28;20983;-70
2022/07/15 05:16:30;;;;;;;28.40;26.70;;;18.80;65.70;;;;;;4962399;28;20451;-70
2022/07/15 05:18:57;;;;;;;29.10;27.40;;;18.80;65.80;;;;;;4966830;28;20467;-71
2022/07/15 05:21:25;;;;;;;28.60;26.60;;;18.90;65.60;;;;;;4964132;28;20464;-69
2022/07/15 05:23:52;;;;;;;28.47;26.67;;;19.00;65.80;;;;;;4966986;28;20500;-73
2022/07/15 05:26:19;;;;;;;28.57;26.77;;;19.00;65.90;;;;;;4957801;28;20490;-74
2022/07/15 05:28:46;;;;;;;29.77;27.90;;;19.20;65.00;;;;;;4962215;28;20506;-72
2022/07/15 05:31:13;;;;;;;28.80;27.07;;;19.30;64.40;;;;;;4967489;28;20845;-74
2022/07/15 05:33:40;;;;;;;27.87;26.17;;;19.40;64.20;;;;;;4966838;28;20454;-75
2022/07/15 05:36:12;;;;;;;27.80;25.90;;;19.60;64.20;;;;;;4967074;28;20477;-77
2022/07/15 05:38:41;;;;;;;29.43;27.73;;;19.70;64.20;;;;;;4965424;28;20831;-72
2022/07/15 05:41:08;;;;;;;28.40;26.40;;;19.90;63.40;;;;;;4965885;28;20832;-72
2022/07/15 05:43:36;;;;;;;29.23;27.20;;;20.00;62.50;;;;;;4966242;28;20489;-72
2022/07/15 05:46:03;;;;;;;28.47;26.60;;;20.10;61.80;;;;;;4960651;28;21119;-74
2022/07/15 05:48:31;;;;;;;29.23;27.33;;;20.30;61.20;;;;;;4967179;28;20557;-71
2022/07/15 05:50:58;;;;;;;30.13;28.23;;;20.30;61.20;;;;;;4967183;28;20512;-71
2022/07/15 05:53:25;;;;;;;29.40;27.43;;;20.50;60.90;;;;;;4968273;28;20464;-74
2022/07/15 05:55:53;;;;;;;30.90;28.90;;;20.50;59.80;;;;;;4967484;28;20457;-70
2022/07/15 05:58:21;;;;;;;29.80;27.93;;;20.60;59.50;;;;;;4968202;28;20597;-69
2022/07/15 06:00:49;;;;;;;30.20;28.00;;;20.60;60.00;;;;;;4963181;28;20483;-70
2022/07/15 06:03:19;;;;;;;32.67;30.60;;;20.70;59.70;;;;;;4965715;28;20480;-70
2022/07/15 06:05:46;;;;;;;30.37;28.40;;;20.80;59.10;;;;;;4964344;28;20993;-72
2022/07/15 06:08:13;;;;;;;31.10;29.00;;;21.00;59.90;;;;;;4962844;28;20840;-75
2022/07/15 06:10:42;;;;;;;32.23;30.23;;;21.10;58.30;;;;;;4966949;28;20569;-74
2022/07/15 06:13:10;;;;;;;32.70;30.60;;;21.20;58.80;;;;;;4966950;28;20462;-73
2022/07/15 06:15:38;;;;;;;29.27;27.43;;;21.10;57.50;;;;;;4964914;28;20557;-72
2022/07/15 06:18:05;;;;;;;29.17;27.27;;;21.10;57.30;;;;;;4964508;28;20475;-71
2022/07/15 06:20:32;;;;;;;30.07;27.90;;;21.20;57.10;;;;;;4966523;28;20513;-72
2022/07/15 06:22:59;;;;;;;30.47;28.47;;;21.30;56.80;;;;;;4964293;28;20479;-72
2022/07/15 06:25:29;;;;;;;30.63;28.73;;;21.40;55.90;;;;;;4961621;28;20459;-72
2022/07/15 06:27:56;;;;;;;30.83;28.57;;;21.50;55.20;;;;;;4968889;28;20566;-72
2022/07/15 06:30:24;;;;;;;28.50;26.53;;;21.40;55.50;;;;;;4970115;28;20502;-74
2022/07/15 06:32:51;;;;;;;29.90;27.30;;;21.30;55.70;;;;;;4970077;28;21137;-72
2022/07/15 06:35:18;;;;;;;28.80;27.00;;;21.20;55.20;;;;;;4969195;28;20663;-77
2022/07/15 06:37:46;;;;;;;28.97;27.13;;;21.30;54.60;;;;;;4966524;28;20563;-73
2022/07/15 06:40:13;;;;;;;31.70;29.70;;;21.30;54.50;;;;;;4970364;28;20518;-73
2022/07/15 06:42:40;;;;;;;29.20;27.50;;;21.20;55.00;;;;;;4969385;28;20889;-72
2022/07/15 06:45:09;;;;;;;30.70;28.60;;;21.30;54.70;;;;;;4966335;28;20466;-73
2022/07/15 06:47:43;;;;;;;30.43;28.67;;;21.50;54.00;;;;;;4969124;28;20454;-71
2022/07/15 06:50:11;;;;;;;32.67;30.30;;;21.60;53.40;;;;;;4966678;28;20460;-70
2022/07/15 06:52:39;;;;;;;29.43;27.17;;;21.60;53.30;;;;;;4968920;28;20567;-70
2022/07/15 06:55:07;;;;;;;29.07;27.37;;;21.70;53.10;;;;;;4966632;28;20500;-70
2022/07/15 06:57:34;;;;;;;30.20;28.37;;;21.70;52.90;;;;;;4962079;28;20456;-70
2022/07/15 07:00:02;;;;;;;27.97;26.27;;;21.80;53.00;;;;;;4961876;28;23125;-70
2022/07/15 07:02:30;;;;;;;32.03;30.17;;;21.90;53.20;;;;;;4967918;28;20843;-70
2022/07/15 07:04:58;;;;;;;30.27;28.33;;;22.00;53.00;;;;;;4970453;28;20785;-70
2022/07/15 07:07:25;;;;;;;30.53;28.40;;;22.20;51.60;;;;;;4970202;28;20546;-70
2022/07/15 07:09:52;;;;;;;29.47;27.77;;;22.20;51.00;;;;;;4969271;28;20599;-71
2022/07/15 07:12:19;;;;;;;28.13;26.33;;;22.10;51.40;;;;;;4966699;28;20929;-70
2022/07/15 07:14:46;;;;;;;28.10;26.20;;;22.10;51.20;;;;;;4969097;28;20543;-70
2022/07/15 07:17:13;;;;;;;29.20;27.23;;;22.20;51.40;;;;;;4963045;28;20454;-70
2022/07/15 07:19:40;;;;;;;27.30;25.60;;;22.30;51.20;;;;;;4967331;28;20516;-69
2022/07/15 07:22:14;;;;;;;28.00;25.80;;;22.30;50.10;;;;;;4968986;28;20460;-72
2022/07/15 07:24:42;;;;;;;27.90;26.20;;;22.40;50.40;;;;;;4963726;28;20533;-69
2022/07/15 07:27:13;;;;;;;28.43;26.53;;;22.40;50.10;;;;;;4963667;28;20474;-69
2022/07/15 07:29:41;;;;;;;31.67;29.67;;;22.40;49.30;;;;;;4965687;28;20572;-68
2022/07/15 07:32:08;;;;;;;30.60;28.70;;;22.40;49.30;;;;;;4963140;28;20544;-68
2022/07/15 07:34:35;;;;;;;29.83;27.73;;;22.40;49.40;;;;;;4968732;28;20553;-68
2022/07/15 07:37:02;;;;;;;28.50;26.80;;;22.40;49.10;;;;;;4957261;28;20486;-69
2022/07/15 07:39:31;;;;;;;30.30;28.50;;;22.40;49.10;;;;;;4968906;28;21071;-69
2022/07/15 07:42:00;;;;;;;27.90;26.40;;;22.50;49.60;;;;;;4963538;28;20479;-69
2022/07/15 07:44:31;;;;;;;30.70;27.67;;;22.70;49.20;;;;;;4969678;28;20482;-69
2022/07/15 07:46:58;;;;;;;31.83;29.90;;;22.80;49.00;;;;;;4967493;28;20467;-69
2022/07/15 07:49:26;;;;;;;31.37;29.47;;;23.10;47.30;;;;;;4968261;28;20983;-69
2022/07/15 07:51:53;;;;;;;28.37;26.73;;;23.00;47.70;;;;;;4961880;28;20470;-69
2022/07/15 07:54:20;;;;;;;28.93;27.03;;;22.90;48.00;;;;;;4969448;28;20476;-68
2022/07/15 07:56:49;;;;;;;29.10;27.17;;;22.90;48.50;;;;;;4966117;28;20999;-69
2022/07/15 07:59:16;;;;;;;30.87;29.27;;;23.10;48.50;;;;;;4968026;28;20478;-69
2022/07/15 08:01:43;;;;;;;27.57;25.97;;;23.30;48.00;;;;;;4963576;28;21247;-69
2022/07/15 08:04:14;;;;;;;29.37;27.77;;;23.40;47.30;;;;;;4968696;28;20941;-69
2022/07/15 08:06:41;;;;;;;27.50;25.90;;;23.50;46.10;;;;;;4958175;28;21027;-70
2022/07/15 08:09:08;;;;;;;27.80;26.10;;;23.40;45.70;;;;;;4962793;28;22114;-69
2022/07/15 08:11:35;;;;;;;30.57;28.67;;;23.20;46.20;;;;;;4968091;28;20538;-71
2022/07/15 08:14:03;;;;;;;29.20;27.40;;;23.30;46.10;;;;;;4965348;28;20459;-77
2022/07/15 08:16:30;;;;;;;30.07;28.17;;;23.40;46.20;;;;;;4963533;28;20473;-71
2022/07/15 08:18:57;;;;;;;30.47;28.67;;;23.50;45.30;;;;;;4960745;28;20566;-71
2022/07/15 08:21:24;;;;;;;28.07;26.47;;;23.40;45.40;;;;;;4967365;28;20593;-71
2022/07/15 08:23:51;;;;;;;32.10;30.47;;;23.30;45.10;;;;;;4968799;28;20475;-71
2022/07/15 08:26:23;;;;;;;28.07;26.47;;;23.30;46.00;;;;;;4964711;28;20467;-73
2022/07/15 08:28:50;;;;;;;29.37;27.57;;;23.50;44.70;;;;;;4964939;28;21044;-70
2022/07/15 08:31:19;;;;;;;31.97;29.97;;;23.50;44.70;;;;;;4968069;28;20459;-69
2022/07/15 08:33:46;;;;;;;28.77;26.80;;;23.50;44.70;;;;;;4969282;28;21024;-71
2022/07/15 08:36:13;;;;;;;30.53;28.70;;;23.60;45.20;;;;;;4968063;28;21044;-71
2022/07/15 08:38:40;;;;;;;27.53;26.03;;;23.80;44.90;;;;;;4965074;28;20640;-70
2022/07/15 08:41:07;;;;;;;30.47;28.67;;;23.90;44.60;;;;;;4967628;28;20463;-71
2022/07/15 08:43:34;;;;;;;28.80;26.80;;;23.90;44.60;;;;;;4964779;28;21028;-71
2022/07/15 08:46:01;;;;;;;29.50;27.50;;;23.90;44.90;;;;;;4960233;28;20498;-73
2022/07/15 08:48:31;;;;;;;30.50;28.70;;;24.00;45.50;;;;;;4963810;28;20483;-71
2022/07/15 08:51:00;;;;;;;29.10;27.00;;;24.00;44.70;;;;;;4965114;28;20840;-70
2022/07/15 08:53:30;;;;;;;30.07;28.30;;;24.00;44.30;;;;;;4962636;28;20888;-73
2022/07/15 08:55:57;;;;;;;29.77;27.97;;;23.90;44.20;;;;;;4960443;28;20455;-71
2022/07/15 08:58:24;;;;;;;28.47;26.80;;;23.80;44.60;;;;;;4962859;28;20483;-71
2022/07/15 09:00:52;;;;;;;32.87;31.10;;;23.80;44.50;;;;;;4956558;28;20810;-71
2022/07/15 09:03:19;;;;;;;29.00;27.07;;;23.70;44.50;;;;;;4967053;28;20494;-71
2022/07/15 09:05:47;;;;;;;28.80;27.10;;;23.70;44.60;;;;;;4961768;28;20475;-68
2022/07/15 09:08:15;;;;;;;27.43;25.73;;;23.70;45.10;;;;;;4957247;28;20807;-68
2022/07/15 09:10:46;;;;;;;28.33;26.33;;;23.80;44.90;;;;;;4957676;28;20534;-69
2022/07/15 09:13:24;;;;;;;27.90;26.27;;;23.80;44.50;;;;;;4959337;28;20491;-68
2022/07/15 09:15:54;;;;;;;32.73;30.83;;;24.00;44.80;;;;;;4957270;28;20467;-68
2022/07/15 09:18:22;;;;;;;28.40;26.70;;;24.10;44.50;;;;;;4962644;28;20483;-68
2022/07/15 09:20:51;;;;;;;31.20;29.37;;;24.00;44.60;;;;;;4959434;28;21044;-69
2022/07/15 09:23:23;;;;;;;28.30;26.60;;;24.10;44.90;;;;;;4964994;28;20490;-68
2022/07/15 09:25:51;;;;;;;30.13;28.33;;;24.20;45.00;;;;;;4959204;28;20455;-69
2022/07/15 09:28:18;;;;;;;29.30;27.60;;;24.30;43.80;;;;;;4963503;28;20490;-70
2022/07/15 09:33:40;;;;;;;32.90;30.50;;;24.00;44.50;;;;;;4960928;28;20466;-68
2022/07/15 09:36:14;;;;;;;30.13;28.33;;;24.00;44.70;;;;;;4959588;28;20466;-68
2022/07/15 09:38:44;;;;;;;29.37;27.57;;;24.20;45.40;;;;;;4963669;28;20857;-73
2022/07/15 09:41:20;;;;;;;32.67;30.37;;;24.40;45.00;;;;;;4964819;28;20498;-72
2022/07/15 09:43:50;;;;;;;30.10;28.30;;;24.70;44.90;;;;;;4966141;28;20490;-70
2022/07/15 09:46:18;;;;;;;29.97;28.30;;;24.90;44.70;;;;;;4963416;28;20973;-71
2022/07/15 09:48:47;;;;;;;29.67;27.87;;;25.00;43.20;;;;;;4965523;28;20493;-71
2022/07/15 09:51:16;;;;;;;32.93;30.93;;;24.90;43.80;;;;;;4967437;28;20562;-71
2022/07/15 09:53:44;;;;;;;28.77;26.97;;;24.70;43.90;;;;;;4967232;28;20547;-71
2022/07/15 09:56:13;;;;;;;30.77;28.93;;;24.60;44.10;;;;;;4965079;28;20470;-71
2022/07/15 09:58:41;;;;;;;32.57;30.67;;;24.60;44.50;;;;;;4963770;28;20481;-72
2022/07/15 10:01:10;;;;;;;30.07;28.17;;;24.90;44.60;;;;;;4963232;28;20452;-72
2022/07/15 10:03:38;;;;;;;31.73;29.67;;;25.10;44.30;;;;;;4969112;28;20510;-72
2022/07/15 10:06:06;;;;;;;34.60;32.40;;;25.30;44.20;;;;;;4966438;28;20496;-72
2022/07/15 10:08:37;;;;;;;32.30;30.20;;;25.60;44.10;;;;;;4970504;28;20481;-74
2022/07/15 10:11:10;;;;;;;31.47;29.13;;;25.80;43.30;;;;;;4961606;28;20544;-73
2022/07/15 10:13:52;;;;;;;33.40;31.40;;;26.00;43.20;;;;;;4964128;28;20515;-74
2022/07/15 10:16:45;;;;;;;30.93;28.93;;;26.20;42.00;;;;;;4963393;28;20459;-74
2022/07/15 10:19:24;;;;;;;30.33;28.63;;;26.20;42.20;;;;;;4965491;28;20567;-72
2022/07/15 10:22:05;;;;;;;33.70;31.70;;;26.30;43.00;;;;;;4970717;28;20679;-74
2022/07/15 10:24:46;;;;;;;30.17;28.17;;;26.30;41.80;;;;;;4967608;28;20568;-73
2022/07/15 10:27:27;;;;;;;32.80;30.70;;;26.00;41.50;;;;;;4968283;28;20477;-74
2022/07/15 10:29:55;;;;;;;30.77;28.70;;;25.60;42.20;;;;;;4966880;28;20486;-72
2022/07/15 10:32:22;;;;;;;31.10;29.10;;;25.60;42.20;;;;;;4967645;28;20809;-72
2022/07/15 10:34:49;;;;;;;32.07;29.97;;;25.70;41.80;;;;;;4965187;28;20477;-71
2022/07/15 10:37:16;;;;;;;33.00;30.90;;;25.50;42.20;;;;;;4969436;28;20473;-72
2022/07/15 10:39:53;;;;;;;32.50;30.50;;;25.50;43.00;;;;;;4966589;28;20570;-77
2022/07/15 10:42:21;;;;;;;33.83;31.57;;;25.80;42.30;;;;;;4969191;28;20497;-70
2022/07/15 10:45:10;;;;;;;32.60;30.60;;;25.80;42.30;;;;;;4969468;28;20574;-70
2022/07/15 10:47:38;;;;;;;33.00;30.90;;;25.90;42.00;;;;;;4965953;28;20547;-71
2022/07/15 10:50:38;;;;;;;32.57;30.57;;;25.70;42.10;;;;;;4971218;28;20978;-71
2022/07/15 10:53:20;;;;;;;30.20;28.40;;;25.70;42.50;;;;;;4960879;28;20470;-71
2022/07/15 10:55:50;;;;;;;32.13;30.13;;;25.50;42.90;;;;;;4966225;28;20452;-70
2022/07/15 10:58:17;;;;;;;30.77;28.80;;;25.50;43.10;;;;;;4966116;28;20519;-69
2022/07/15 11:00:46;;;;;;;33.90;31.40;;;25.50;42.80;;;;;;4967812;28;20552;-70
2022/07/15 11:03:14;;;;;;;32.77;30.77;;;25.60;42.80;;;;;;4963092;28;20466;-69
2022/07/15 11:06:05;;;;;;;33.40;31.30;;;25.70;42.70;;;;;;4966670;28;20459;-70
2022/07/15 11:08:55;;;;;;;31.63;29.53;;;25.90;42.50;;;;;;4960135;28;20493;-69
2022/07/15 11:11:51;;;;;;;31.50;29.20;;;26.10;41.50;;;;;;4961669;28;20786;-70
2022/07/15 11:14:46;;;;;;;31.27;29.37;;;26.00;42.20;;;;;;4961167;28;20598;-69
2022/07/15 11:17:16;;;;;;;31.40;29.40;;;26.10;41.80;;;;;;4964009;28;20561;-70
2022/07/15 11:19:46;;;;;;;32.97;30.97;;;26.10;42.40;;;;;;4970486;28;21039;-70
2022/07/15 11:22:13;;;;;;;32.07;30.17;;;26.20;42.20;;;;;;4963704;28;20555;-70
2022/07/15 11:24:40;;;;;;;29.73;27.83;;;26.20;42.00;;;;;;4964236;28;20489;-70
2022/07/15 11:27:09;;;;;;;33.70;31.60;;;26.30;41.60;;;;;;4967756;28;20880;-70
2022/07/15 11:29:48;;;;;;;32.77;30.70;;;26.20;41.40;;;;;;4967440;28;21010;-70
2022/07/15 11:32:17;;;;;;;32.33;30.30;;;25.90;41.90;;;;;;4963320;28;20464;-70
2022/07/15 11:34:46;;;;;;;31.70;29.70;;;26.10;42.10;;;;;;4965220;28;20546;-69
2022/07/15 11:37:18;;;;;;;32.77;30.13;;;26.10;42.00;;;;;;4956427;28;20538;-70
2022/07/15 11:39:49;;;;;;;34.07;31.97;;;26.10;42.10;;;;;;4961039;28;20509;-71
2022/07/15 11:45:08;;;;;;;32.47;30.30;;;26.30;42.00;;;;;;4963656;28;20477;-72
2022/07/15 11:47:35;;;;;;;34.83;32.63;;;26.10;42.10;;;;;;4966644;28;20902;-69
2022/07/15 11:50:05;;;;;;;35.60;33.30;;;26.10;42.60;;;;;;4964040;28;20463;-70
2022/07/15 11:52:32;;;;;;;34.47;32.13;;;26.30;42.30;;;;;;4964451;28;20552;-70
2022/07/15 11:54:59;;;;;;;33.37;31.17;;;26.20;42.40;;;;;;4962592;28;20762;-70
2022/07/15 11:57:33;;;;;;;32.00;30.10;;;26.20;43.20;;;;;;4967088;28;20465;-70
2022/07/15 12:00:00;;;;;;;34.60;32.37;;;26.40;42.20;;;;;;4966453;28;20467;-72
2022/07/15 12:02:29;;;;;;;33.40;31.07;;;26.30;42.30;;;;;;4963194;28;20487;-72
2022/07/15 12:05:03;;;;;;;33.27;31.10;;;26.50;41.80;;;;;;4967159;28;20571;-73
2022/07/15 12:07:41;;;;;;;37.10;34.80;;;26.40;42.10;;;;;;4962856;28;20466;-72
2022/07/15 12:10:10;;;;;;;32.93;30.90;;;26.30;41.90;;;;;;4966688;28;20573;-72
2022/07/15 12:12:43;;;;;;;34.03;32.03;;;26.00;42.60;;;;;;4968966;28;20469;-73
2022/07/15 12:15:11;;;;;;;34.60;32.10;;;26.00;42.70;;;;;;4971137;28;20485;-72
2022/07/15 12:17:39;;;;;;;32.90;30.80;;;26.10;42.40;;;;;;4960275;28;20473;-72
2022/07/15 12:20:09;;;;;;;33.30;31.40;;;26.00;42.60;;;;;;4962955;28;21053;-75
2022/07/15 12:22:36;;;;;;;33.47;31.47;;;25.60;43.00;;;;;;4969488;28;21023;-73
2022/07/15 12:25:04;;;;;;;34.30;32.33;;;25.60;43.10;;;;;;4965698;28;20579;-72
2022/07/15 12:27:35;;;;;;;34.43;32.33;;;25.70;43.10;;;;;;4966169;28;20552;-72
2022/07/15 12:30:06;;;;;;;32.97;30.87;;;25.70;43.30;;;;;;4967326;28;20526;-71
2022/07/15 12:32:33;;;;;;;34.80;32.70;;;25.90;42.90;;;;;;4970054;28;20545;-71
2022/07/15 12:35:02;;;;;;;32.07;30.10;;;26.10;42.70;;;;;;4965712;28;20462;-72
2022/07/15 12:37:48;;;;;;;31.80;29.60;;;26.20;42.60;;;;;;4967219;28;20459;-72
2022/07/15 12:40:22;;;;;;;31.20;29.40;;;26.10;42.30;;;;;;4966704;28;20457;-72
2022/07/15 12:42:50;;;;;;;31.60;29.80;;;26.20;42.40;;;;;;4961870;28;20573;-72
2022/07/15 12:45:20;;;;;;;34.60;32.50;;;26.40;42.40;;;;;;4968141;28;20948;-72